sensor_id;sensor_type;location;lat;lon;timestamp;temperature;humidity
67279;DHT22;54193;53.746;10.058;2024-02-23T00:00:57;10.78;70.33
67279;DHT22;54193;53.746;10.058;2024-02-23T00:03:22;10.53;67.32
67279;DHT22;54193;53.746;10.058;2024-02-23T00:05:47;10.47;67.11
67279;DHT22;54193;53.746;10.058;2024-02-23T00:08:12;10.30;67.74
67279;DHT22;54193;53.746;10.058;2024-02-23T00:10:38;10.21;68.31
67279;DHT22;54193;53.746;10.058;2024-02-23T00:13:03;10.14;67.83
67279;DHT22;54193;53.746;10.058;2024-02-23T00:15:28;10.06;67.93
67279;DHT22;54193;53.746;10.058;2024-02-23T00:17:54;9.99;68.36
67279;DHT22;54193;53.746;10.058;2024-02-23T00:20:19;9.95;69.02
67279;DHT22;54193;53.746;10.058;2024-02-23T00:22:45;9.88;69.50
67279;DHT22;54193;53.746;10.058;2024-02-23T00:25:10;9.82;70.39
67279;DHT22;54193;53.746;10.058;2024-02-23T00:27:35;9.79;70.85
67279;DHT22;54193;53.746;10.058;2024-02-23T00:30:00;9.93;70.86
67279;DHT22;54193;53.746;10.058;2024-02-23T00:32:26;9.86;72.00
67279;DHT22;54193;53.746;10.058;2024-02-23T00:34:51;9.85;71.82
67279;DHT22;54193;53.746;10.058;2024-02-23T00:37:16;9.93;72.23
67279;DHT22;54193;53.746;10.058;2024-02-23T00:39:41;10.05;72.12
67279;DHT22;54193;53.746;10.058;2024-02-23T00:42:06;9.95;71.60
67279;DHT22;54193;53.746;10.058;2024-02-23T00:44:32;9.92;72.15
67279;DHT22;54193;53.746;10.058;2024-02-23T00:46:57;9.61;75.27
67279;DHT22;54193;53.746;10.058;2024-02-23T00:49:26;9.17;78.84
67279;DHT22;54193;53.746;10.058;2024-02-23T00:51:51;8.85;81.87
67279;DHT22;54193;53.746;10.058;2024-02-23T00:54:16;8.40;84.01
67279;DHT22;54193;53.746;10.058;2024-02-23T00:56:42;8.19;84.01
67279;DHT22;54193;53.746;10.058;2024-02-23T00:59:07;8.09;83.53
67279;DHT22;54193;53.746;10.058;2024-02-23T01:01:32;8.16;84.55
67279;DHT22;54193;53.746;10.058;2024-02-23T01:03:57;8.00;84.74
67279;DHT22;54193;53.746;10.058;2024-02-23T01:06:23;8.06;84.21
67279;DHT22;54193;53.746;10.058;2024-02-23T01:08:49;8.03;83.69
67279;DHT22;54193;53.746;10.058;2024-02-23T01:11:14;7.94;83.78
67279;DHT22;54193;53.746;10.058;2024-02-23T01:13:40;8.04;83.30
67279;DHT22;54193;53.746;10.058;2024-02-23T01:16:05;8.06;83.37
67279;DHT22;54193;53.746;10.058;2024-02-23T01:18:31;7.99;83.06
67279;DHT22;54193;53.746;10.058;2024-02-23T01:20:56;8.03;82.55
67279;DHT22;54193;53.746;10.058;2024-02-23T01:23:22;7.94;82.30
67279;DHT22;54193;53.746;10.058;2024-02-23T01:25:47;7.82;80.89
67279;DHT22;54193;53.746;10.058;2024-02-23T01:28:12;7.79;80.45
67279;DHT22;54193;53.746;10.058;2024-02-23T01:30:37;7.71;80.14
67279;DHT22;54193;53.746;10.058;2024-02-23T01:33:03;7.76;79.44
67279;DHT22;54193;53.746;10.058;2024-02-23T01:35:28;7.89;78.79
67279;DHT22;54193;53.746;10.058;2024-02-23T01:37:55;7.78;78.81
67279;DHT22;54193;53.746;10.058;2024-02-23T01:40:20;7.79;78.28
67279;DHT22;54193;53.746;10.058;2024-02-23T01:42:45;7.82;78.16
67279;DHT22;54193;53.746;10.058;2024-02-23T01:45:10;7.76;76.97
67279;DHT22;54193;53.746;10.058;2024-02-23T01:47:36;7.76;77.33
67279;DHT22;54193;53.746;10.058;2024-02-23T01:50:01;7.83;77.58
67279;DHT22;54193;53.746;10.058;2024-02-23T01:52:27;7.78;76.97
67279;DHT22;54193;53.746;10.058;2024-02-23T01:54:52;7.87;77.19
67279;DHT22;54193;53.746;10.058;2024-02-23T01:57:18;7.82;76.14
67279;DHT22;54193;53.746;10.058;2024-02-23T01:59:43;7.82;76.08
67279;DHT22;54193;53.746;10.058;2024-02-23T02:02:08;7.96;76.44
67279;DHT22;54193;53.746;10.058;2024-02-23T02:04:34;7.99;76.57
67279;DHT22;54193;53.746;10.058;2024-02-23T02:06:59;7.86;76.47
67279;DHT22;54193;53.746;10.058;2024-02-23T02:09:26;7.83;76.91
67279;DHT22;54193;53.746;10.058;2024-02-23T02:11:51;7.76;76.35
67279;DHT22;54193;53.746;10.058;2024-02-23T02:14:16;7.71;76.76
67279;DHT22;54193;53.746;10.058;2024-02-23T02:16:42;7.71;77.01
67279;DHT22;54193;53.746;10.058;2024-02-23T02:19:09;7.68;77.93
67279;DHT22;54193;53.746;10.058;2024-02-23T02:21:34;7.50;77.83
67279;DHT22;54193;53.746;10.058;2024-02-23T02:24:00;7.54;78.17
67279;DHT22;54193;53.746;10.058;2024-02-23T02:26:25;7.47;78.26
67279;DHT22;54193;53.746;10.058;2024-02-23T02:28:50;7.50;76.46
67279;DHT22;54193;53.746;10.058;2024-02-23T02:31:15;7.37;76.86
67279;DHT22;54193;53.746;10.058;2024-02-23T02:33:41;7.45;76.39
67279;DHT22;54193;53.746;10.058;2024-02-23T02:36:06;7.45;76.96
67279;DHT22;54193;53.746;10.058;2024-02-23T02:38:32;7.41;78.20
67279;DHT22;54193;53.746;10.058;2024-02-23T02:40:58;7.23;80.76
67279;DHT22;54193;53.746;10.058;2024-02-23T02:43:25;6.97;81.70
67279;DHT22;54193;53.746;10.058;2024-02-23T02:45:50;6.92;82.56
67279;DHT22;54193;53.746;10.058;2024-02-23T02:48:15;6.80;82.20
67279;DHT22;54193;53.746;10.058;2024-02-23T02:50:41;6.86;81.23
67279;DHT22;54193;53.746;10.058;2024-02-23T02:53:06;6.88;81.55
67279;DHT22;54193;53.746;10.058;2024-02-23T02:55:31;6.82;81.01
67279;DHT22;54193;53.746;10.058;2024-02-23T02:57:57;6.92;80.43
67279;DHT22;54193;53.746;10.058;2024-02-23T03:00:22;6.92;80.46
67279;DHT22;54193;53.746;10.058;2024-02-23T03:02:47;6.89;80.35
67279;DHT22;54193;53.746;10.058;2024-02-23T03:05:12;6.96;80.39
67279;DHT22;54193;53.746;10.058;2024-02-23T03:07:38;6.93;80.01
67279;DHT22;54193;53.746;10.058;2024-02-23T03:10:03;7.00;80.55
67279;DHT22;54193;53.746;10.058;2024-02-23T03:12:28;6.90;81.37
67279;DHT22;54193;53.746;10.058;2024-02-23T03:14:54;6.83;81.06
67279;DHT22;54193;53.746;10.058;2024-02-23T03:17:20;6.76;81.47
67279;DHT22;54193;53.746;10.058;2024-02-23T03:19:46;6.88;81.03
67279;DHT22;54193;53.746;10.058;2024-02-23T03:22:11;6.89;81.32
67279;DHT22;54193;53.746;10.058;2024-02-23T03:24:36;6.78;80.85
67279;DHT22;54193;53.746;10.058;2024-02-23T03:27:02;6.88;80.41
67279;DHT22;54193;53.746;10.058;2024-02-23T03:29:28;6.90;80.91
67279;DHT22;54193;53.746;10.058;2024-02-23T03:31:57;6.88;80.74
67279;DHT22;54193;53.746;10.058;2024-02-23T03:34:22;6.75;81.21
67279;DHT22;54193;53.746;10.058;2024-02-23T03:36:47;6.78;80.91
67279;DHT22;54193;53.746;10.058;2024-02-23T03:39:13;6.78;80.60
67279;DHT22;54193;53.746;10.058;2024-02-23T03:41:38;6.97;80.45
67279;DHT22;54193;53.746;10.058;2024-02-23T03:44:03;6.86;80.52
67279;DHT22;54193;53.746;10.058;2024-02-23T03:46:28;6.82;80.40
67279;DHT22;54193;53.746;10.058;2024-02-23T03:48:54;6.92;80.02
67279;DHT22;54193;53.746;10.058;2024-02-23T03:51:19;6.92;80.02
67279;DHT22;54193;53.746;10.058;2024-02-23T03:53:44;6.89;79.93
67279;DHT22;54193;53.746;10.058;2024-02-23T03:56:09;6.72;80.72
67279;DHT22;54193;53.746;10.058;2024-02-23T03:58:35;6.69;80.62
67279;DHT22;54193;53.746;10.058;2024-02-23T04:01:00;6.73;81.01
67279;DHT22;54193;53.746;10.058;2024-02-23T04:03:25;6.67;80.66
67279;DHT22;54193;53.746;10.058;2024-02-23T04:05:50;6.59;80.64
67279;DHT22;54193;53.746;10.058;2024-02-23T04:08:16;6.51;80.51
67279;DHT22;54193;53.746;10.058;2024-02-23T04:10:41;6.45;80.38
67279;DHT22;54193;53.746;10.058;2024-02-23T04:13:06;6.45;80.23
67279;DHT22;54193;53.746;10.058;2024-02-23T04:15:31;6.40;79.58
67279;DHT22;54193;53.746;10.058;2024-02-23T04:17:57;6.42;79.31
67279;DHT22;54193;53.746;10.058;2024-02-23T04:20:22;6.34;79.45
67279;DHT22;54193;53.746;10.058;2024-02-23T04:22:47;6.41;79.66
67279;DHT22;54193;53.746;10.058;2024-02-23T04:25:12;6.34;79.98
67279;DHT22;54193;53.746;10.058;2024-02-23T04:27:38;6.24;80.23
67279;DHT22;54193;53.746;10.058;2024-02-23T04:30:04;6.27;80.10
67279;DHT22;54193;53.746;10.058;2024-02-23T04:32:29;6.24;79.66
67279;DHT22;54193;53.746;10.058;2024-02-23T04:34:55;6.32;79.93
67279;DHT22;54193;53.746;10.058;2024-02-23T04:37:20;6.30;79.81
67279;DHT22;54193;53.746;10.058;2024-02-23T04:39:45;6.37;79.62
67279;DHT22;54193;53.746;10.058;2024-02-23T04:42:11;6.20;80.32
67279;DHT22;54193;53.746;10.058;2024-02-23T04:44:36;6.23;79.79
67279;DHT22;54193;53.746;10.058;2024-02-23T04:47:01;6.25;79.77
67279;DHT22;54193;53.746;10.058;2024-02-23T04:49:27;6.35;79.75
67279;DHT22;54193;53.746;10.058;2024-02-23T04:51:53;6.41;79.61
67279;DHT22;54193;53.746;10.058;2024-02-23T04:54:18;6.35;79.91
67279;DHT22;54193;53.746;10.058;2024-02-23T04:56:43;6.35;79.51
67279;DHT22;54193;53.746;10.058;2024-02-23T04:59:09;6.41;79.69
67279;DHT22;54193;53.746;10.058;2024-02-23T05:01:37;6.41;79.57
67279;DHT22;54193;53.746;10.058;2024-02-23T05:04:02;6.30;79.47
67279;DHT22;54193;53.746;10.058;2024-02-23T05:06:28;6.42;79.24
67279;DHT22;54193;53.746;10.058;2024-02-23T05:08:53;6.42;79.27
67279;DHT22;54193;53.746;10.058;2024-02-23T05:11:19;6.52;79.54
67279;DHT22;54193;53.746;10.058;2024-02-23T05:13:44;6.56;79.15
67279;DHT22;54193;53.746;10.058;2024-02-23T05:16:09;6.51;79.09
67279;DHT22;54193;53.746;10.058;2024-02-23T05:18:35;6.55;78.99
67279;DHT22;54193;53.746;10.058;2024-02-23T05:21:00;6.62;78.96
67279;DHT22;54193;53.746;10.058;2024-02-23T05:23:25;6.52;79.21
67279;DHT22;54193;53.746;10.058;2024-02-23T05:25:50;6.56;79.23
67279;DHT22;54193;53.746;10.058;2024-02-23T05:28:16;6.59;79.33
67279;DHT22;54193;53.746;10.058;2024-02-23T05:30:41;6.55;79.37
67279;DHT22;54193;53.746;10.058;2024-02-23T05:33:07;6.49;79.22
67279;DHT22;54193;53.746;10.058;2024-02-23T05:35:32;6.42;79.10
67279;DHT22;54193;53.746;10.058;2024-02-23T05:37:57;6.52;79.09
67279;DHT22;54193;53.746;10.058;2024-02-23T05:40:23;6.55;78.89
67279;DHT22;54193;53.746;10.058;2024-02-23T05:42:49;6.49;79.19
67279;DHT22;54193;53.746;10.058;2024-02-23T05:45:14;6.56;79.20
67279;DHT22;54193;53.746;10.058;2024-02-23T05:47:39;6.38;79.25
67279;DHT22;54193;53.746;10.058;2024-02-23T05:50:05;6.21;79.72
67279;DHT22;54193;53.746;10.058;2024-02-23T05:52:31;6.14;80.11
67279;DHT22;54193;53.746;10.058;2024-02-23T05:54:56;6.11;79.93
67279;DHT22;54193;53.746;10.058;2024-02-23T05:57:22;6.10;80.06
67279;DHT22;54193;53.746;10.058;2024-02-23T05:59:47;6.11;80.07
67279;DHT22;54193;53.746;10.058;2024-02-23T06:02:13;5.99;79.96
67279;DHT22;54193;53.746;10.058;2024-02-23T06:04:39;6.20;79.06
67279;DHT22;54193;53.746;10.058;2024-02-23T06:07:04;6.28;78.93
67279;DHT22;54193;53.746;10.058;2024-02-23T06:09:30;6.18;79.01
67279;DHT22;54193;53.746;10.058;2024-02-23T06:11:55;6.18;79.22
67279;DHT22;54193;53.746;10.058;2024-02-23T06:14:20;6.18;78.93
67279;DHT22;54193;53.746;10.058;2024-02-23T06:16:46;6.27;78.86
67279;DHT22;54193;53.746;10.058;2024-02-23T06:19:11;6.44;78.59
67279;DHT22;54193;53.746;10.058;2024-02-23T06:21:36;6.45;78.23
67279;DHT22;54193;53.746;10.058;2024-02-23T06:24:01;6.46;78.13
67279;DHT22;54193;53.746;10.058;2024-02-23T06:26:27;6.41;78.07
67279;DHT22;54193;53.746;10.058;2024-02-23T06:28:53;6.49;77.76
67279;DHT22;54193;53.746;10.058;2024-02-23T06:31:18;6.41;77.60
67279;DHT22;54193;53.746;10.058;2024-02-23T06:33:43;6.31;77.65
67279;DHT22;54193;53.746;10.058;2024-02-23T06:36:09;6.32;77.63
67279;DHT22;54193;53.746;10.058;2024-02-23T06:38:34;6.32;77.70
67279;DHT22;54193;53.746;10.058;2024-02-23T06:40:59;6.23;77.92
67279;DHT22;54193;53.746;10.058;2024-02-23T06:43:24;6.28;78.08
67279;DHT22;54193;53.746;10.058;2024-02-23T06:45:50;6.31;78.26
67279;DHT22;54193;53.746;10.058;2024-02-23T06:48:16;6.21;78.26
67279;DHT22;54193;53.746;10.058;2024-02-23T06:50:41;6.20;77.91
67279;DHT22;54193;53.746;10.058;2024-02-23T06:53:06;6.23;78.00
67279;DHT22;54193;53.746;10.058;2024-02-23T06:55:31;6.21;77.74
67279;DHT22;54193;53.746;10.058;2024-02-23T06:57:57;6.30;77.67
67279;DHT22;54193;53.746;10.058;2024-02-23T07:00:22;6.23;77.54
67279;DHT22;54193;53.746;10.058;2024-02-23T07:02:47;6.28;77.44
67279;DHT22;54193;53.746;10.058;2024-02-23T07:05:12;6.38;77.24
67279;DHT22;54193;53.746;10.058;2024-02-23T07:07:39;6.34;77.57
67279;DHT22;54193;53.746;10.058;2024-02-23T07:10:05;6.40;77.83
67279;DHT22;54193;53.746;10.058;2024-02-23T07:12:31;6.34;77.59
67279;DHT22;54193;53.746;10.058;2024-02-23T07:14:56;6.40;77.59
67279;DHT22;54193;53.746;10.058;2024-02-23T07:17:21;6.49;77.50
67279;DHT22;54193;53.746;10.058;2024-02-23T07:19:47;6.48;77.49
67279;DHT22;54193;53.746;10.058;2024-02-23T07:22:12;6.40;77.88
67279;DHT22;54193;53.746;10.058;2024-02-23T07:24:43;6.44;77.46
67279;DHT22;54193;53.746;10.058;2024-02-23T07:27:09;6.41;77.85
67279;DHT22;54193;53.746;10.058;2024-02-23T07:29:34;6.41;77.38
67279;DHT22;54193;53.746;10.058;2024-02-23T07:31:59;6.41;77.76
67279;DHT22;54193;53.746;10.058;2024-02-23T07:34:24;6.46;77.81
67279;DHT22;54193;53.746;10.058;2024-02-23T07:36:53;6.44;77.89
67279;DHT22;54193;53.746;10.058;2024-02-23T07:39:18;6.41;77.71
67279;DHT22;54193;53.746;10.058;2024-02-23T07:41:43;6.56;77.66
67279;DHT22;54193;53.746;10.058;2024-02-23T07:44:08;6.58;77.90
67279;DHT22;54193;53.746;10.058;2024-02-23T07:46:34;6.59;77.71
67279;DHT22;54193;53.746;10.058;2024-02-23T07:48:59;6.72;77.35
67279;DHT22;54193;53.746;10.058;2024-02-23T07:51:24;6.73;77.20
67279;DHT22;54193;53.746;10.058;2024-02-23T07:53:50;6.89;77.31
67279;DHT22;54193;53.746;10.058;2024-02-23T07:56:15;6.89;77.07
67279;DHT22;54193;53.746;10.058;2024-02-23T07:58:40;6.95;77.38
67279;DHT22;54193;53.746;10.058;2024-02-23T08:01:05;6.93;77.08
67279;DHT22;54193;53.746;10.058;2024-02-23T08:03:30;6.95;77.11
67279;DHT22;54193;53.746;10.058;2024-02-23T08:05:56;7.00;77.27
67279;DHT22;54193;53.746;10.058;2024-02-23T08:08:21;7.26;76.72
67279;DHT22;54193;53.746;10.058;2024-02-23T08:10:48;7.18;76.59
67279;DHT22;54193;53.746;10.058;2024-02-23T08:13:14;6.99;76.44
67279;DHT22;54193;53.746;10.058;2024-02-23T08:15:40;7.40;76.08
67279;DHT22;54193;53.746;10.058;2024-02-23T08:18:05;7.34;75.84
67279;DHT22;54193;53.746;10.058;2024-02-23T08:20:31;7.48;75.48
67279;DHT22;54193;53.746;10.058;2024-02-23T08:22:56;7.72;75.11
67279;DHT22;54193;53.746;10.058;2024-02-23T08:25:21;7.96;74.57
67279;DHT22;54193;53.746;10.058;2024-02-23T08:27:46;7.94;74.73
67279;DHT22;54193;53.746;10.058;2024-02-23T08:30:13;7.97;74.44
67279;DHT22;54193;53.746;10.058;2024-02-23T08:32:38;8.03;73.45
67279;DHT22;54193;53.746;10.058;2024-02-23T08:35:04;8.24;72.62
67279;DHT22;54193;53.746;10.058;2024-02-23T08:37:29;8.13;73.12
67279;DHT22;54193;53.746;10.058;2024-02-23T08:39:54;7.83;73.27
67279;DHT22;54193;53.746;10.058;2024-02-23T08:42:19;7.94;73.10
67279;DHT22;54193;53.746;10.058;2024-02-23T08:44:45;7.71;72.82
67279;DHT22;54193;53.746;10.058;2024-02-23T08:47:10;8.26;71.44
67279;DHT22;54193;53.746;10.058;2024-02-23T08:49:35;8.30;71.70
67279;DHT22;54193;53.746;10.058;2024-02-23T08:52:00;8.28;71.63
67279;DHT22;54193;53.746;10.058;2024-02-23T08:54:27;8.06;71.48
67279;DHT22;54193;53.746;10.058;2024-02-23T08:56:52;8.09;71.92
67279;DHT22;54193;53.746;10.058;2024-02-23T08:59:18;7.81;71.62
67279;DHT22;54193;53.746;10.058;2024-02-23T09:01:43;7.68;72.47
67279;DHT22;54193;53.746;10.058;2024-02-23T09:04:09;7.81;72.21
67279;DHT22;54193;53.746;10.058;2024-02-23T09:06:34;7.79;72.19
67279;DHT22;54193;53.746;10.058;2024-02-23T09:09:00;7.83;71.35
67279;DHT22;54193;53.746;10.058;2024-02-23T09:11:25;8.03;71.89
67279;DHT22;54193;53.746;10.058;2024-02-23T09:13:51;8.11;71.71
67279;DHT22;54193;53.746;10.058;2024-02-23T09:16:16;8.17;70.69
67279;DHT22;54193;53.746;10.058;2024-02-23T09:18:42;8.13;70.71
67279;DHT22;54193;53.746;10.058;2024-02-23T09:21:07;7.92;70.88
67279;DHT22;54193;53.746;10.058;2024-02-23T09:23:33;8.06;71.14
67279;DHT22;54193;53.746;10.058;2024-02-23T09:25:58;8.17;71.05
67279;DHT22;54193;53.746;10.058;2024-02-23T09:28:24;8.38;70.21
67279;DHT22;54193;53.746;10.058;2024-02-23T09:30:49;8.48;69.83
67279;DHT22;54193;53.746;10.058;2024-02-23T09:33:14;8.36;69.73
67279;DHT22;54193;53.746;10.058;2024-02-23T09:35:40;8.31;70.61
67279;DHT22;54193;53.746;10.058;2024-02-23T09:38:05;8.16;70.16
67279;DHT22;54193;53.746;10.058;2024-02-23T09:40:30;8.28;70.15
67279;DHT22;54193;53.746;10.058;2024-02-23T09:42:56;8.38;70.21
67279;DHT22;54193;53.746;10.058;2024-02-23T09:45:22;8.37;69.73
67279;DHT22;54193;53.746;10.058;2024-02-23T09:47:48;8.49;69.23
67279;DHT22;54193;53.746;10.058;2024-02-23T09:50:13;8.52;69.85
67279;DHT22;54193;53.746;10.058;2024-02-23T09:52:40;8.24;69.92
67279;DHT22;54193;53.746;10.058;2024-02-23T09:55:05;8.38;69.79
67279;DHT22;54193;53.746;10.058;2024-02-23T09:57:31;8.13;69.68
67279;DHT22;54193;53.746;10.058;2024-02-23T09:59:56;8.20;69.58
67279;DHT22;54193;53.746;10.058;2024-02-23T10:02:22;8.28;69.69
67279;DHT22;54193;53.746;10.058;2024-02-23T10:04:47;8.38;69.62
67279;DHT22;54193;53.746;10.058;2024-02-23T10:07:14;8.33;69.40
67279;DHT22;54193;53.746;10.058;2024-02-23T10:09:40;8.41;69.35
67279;DHT22;54193;53.746;10.058;2024-02-23T10:12:05;8.58;68.80
67279;DHT22;54193;53.746;10.058;2024-02-23T10:14:31;8.61;68.71
67279;DHT22;54193;53.746;10.058;2024-02-23T10:16:56;8.45;69.10
67279;DHT22;54193;53.746;10.058;2024-02-23T10:19:22;8.51;69.47
67279;DHT22;54193;53.746;10.058;2024-02-23T10:21:47;8.68;69.22
67279;DHT22;54193;53.746;10.058;2024-02-23T10:24:12;8.75;68.35
67279;DHT22;54193;53.746;10.058;2024-02-23T10:26:38;8.59;68.75
67279;DHT22;54193;53.746;10.058;2024-02-23T10:29:03;8.58;67.59
67279;DHT22;54193;53.746;10.058;2024-02-23T10:31:30;8.68;68.18
67279;DHT22;54193;53.746;10.058;2024-02-23T10:33:58;8.96;67.74
67279;DHT22;54193;53.746;10.058;2024-02-23T10:36:23;9.35;67.67
67279;DHT22;54193;53.746;10.058;2024-02-23T10:38:50;9.44;66.65
67279;DHT22;54193;53.746;10.058;2024-02-23T10:41:17;8.99;66.62
67279;DHT22;54193;53.746;10.058;2024-02-23T10:43:46;9.07;66.51
67279;DHT22;54193;53.746;10.058;2024-02-23T10:46:12;8.73;67.01
67279;DHT22;54193;53.746;10.058;2024-02-23T10:48:44;8.80;67.77
67279;DHT22;54193;53.746;10.058;2024-02-23T10:51:10;8.90;66.89
67279;DHT22;54193;53.746;10.058;2024-02-23T10:53:35;9.02;67.21
67279;DHT22;54193;53.746;10.058;2024-02-23T10:56:01;8.99;66.56
67279;DHT22;54193;53.746;10.058;2024-02-23T10:58:28;9.17;66.50
67279;DHT22;54193;53.746;10.058;2024-02-23T11:00:54;9.19;66.59
67279;DHT22;54193;53.746;10.058;2024-02-23T11:03:24;9.24;66.17
67279;DHT22;54193;53.746;10.058;2024-02-23T11:05:49;9.12;66.63
67279;DHT22;54193;53.746;10.058;2024-02-23T11:08:17;9.26;66.09
67279;DHT22;54193;53.746;10.058;2024-02-23T11:10:43;8.99;66.07
67279;DHT22;54193;53.746;10.058;2024-02-23T11:13:08;8.87;66.33
67279;DHT22;54193;53.746;10.058;2024-02-23T11:15:33;8.89;67.27
67279;DHT22;54193;53.746;10.058;2024-02-23T11:18:04;8.80;66.90
67279;DHT22;54193;53.746;10.058;2024-02-23T11:20:53;8.95;67.30
67279;DHT22;54193;53.746;10.058;2024-02-23T11:23:18;9.09;66.87
67279;DHT22;54193;53.746;10.058;2024-02-23T11:25:57;9.27;66.27
67279;DHT22;54193;53.746;10.058;2024-02-23T11:28:26;9.30;65.26
67279;DHT22;54193;53.746;10.058;2024-02-23T11:30:51;9.55;65.53
67279;DHT22;54193;53.746;10.058;2024-02-23T11:33:25;9.33;65.35
67279;DHT22;54193;53.746;10.058;2024-02-23T11:35:51;9.34;64.92
67279;DHT22;54193;53.746;10.058;2024-02-23T11:38:17;9.38;65.61
67279;DHT22;54193;53.746;10.058;2024-02-23T11:40:43;9.07;65.06
67279;DHT22;54193;53.746;10.058;2024-02-23T11:43:08;9.03;65.22
67279;DHT22;54193;53.746;10.058;2024-02-23T11:45:35;9.28;65.59
67279;DHT22;54193;53.746;10.058;2024-02-23T11:48:00;9.27;65.75
67279;DHT22;54193;53.746;10.058;2024-02-23T11:50:25;9.24;65.17
67279;DHT22;54193;53.746;10.058;2024-02-23T11:52:50;9.41;65.99
67279;DHT22;54193;53.746;10.058;2024-02-23T11:55:19;9.51;65.55
67279;DHT22;54193;53.746;10.058;2024-02-23T11:57:48;9.52;64.58
67279;DHT22;54193;53.746;10.058;2024-02-23T12:00:13;9.52;65.11
67279;DHT22;54193;53.746;10.058;2024-02-23T12:02:38;9.57;64.33
67279;DHT22;54193;53.746;10.058;2024-02-23T12:05:04;9.33;64.88
67279;DHT22;54193;53.746;10.058;2024-02-23T12:07:29;9.50;64.77
67279;DHT22;54193;53.746;10.058;2024-02-23T12:09:55;9.38;64.80
67279;DHT22;54193;53.746;10.058;2024-02-23T12:12:20;9.37;64.22
67279;DHT22;54193;53.746;10.058;2024-02-23T12:14:45;9.51;64.80
67279;DHT22;54193;53.746;10.058;2024-02-23T12:17:11;9.47;63.88
67279;DHT22;54193;53.746;10.058;2024-02-23T12:19:39;9.37;65.05
67279;DHT22;54193;53.746;10.058;2024-02-23T12:22:05;9.26;63.51
67279;DHT22;54193;53.746;10.058;2024-02-23T12:24:30;9.41;64.14
67279;DHT22;54193;53.746;10.058;2024-02-23T12:26:57;9.54;64.18
67279;DHT22;54193;53.746;10.058;2024-02-23T12:29:23;9.50;62.07
67279;DHT22;54193;53.746;10.058;2024-02-23T12:31:48;9.85;62.63
67279;DHT22;54193;53.746;10.058;2024-02-23T12:34:13;9.68;60.93
67279;DHT22;54193;53.746;10.058;2024-02-23T12:36:39;9.68;61.10
67279;DHT22;54193;53.746;10.058;2024-02-23T12:39:04;9.62;61.69
67279;DHT22;54193;53.746;10.058;2024-02-23T12:41:29;9.44;61.54
67279;DHT22;54193;53.746;10.058;2024-02-23T12:43:55;9.50;61.79
67279;DHT22;54193;53.746;10.058;2024-02-23T12:46:20;9.62;62.40
67279;DHT22;54193;53.746;10.058;2024-02-23T12:48:45;9.42;62.39
67279;DHT22;54193;53.746;10.058;2024-02-23T12:51:10;9.37;62.02
67279;DHT22;54193;53.746;10.058;2024-02-23T12:53:37;9.35;61.98
67279;DHT22;54193;53.746;10.058;2024-02-23T12:56:04;9.27;61.66
67279;DHT22;54193;53.746;10.058;2024-02-23T12:58:30;9.34;62.33
67279;DHT22;54193;53.746;10.058;2024-02-23T13:00:55;9.55;61.37
67279;DHT22;54193;53.746;10.058;2024-02-23T13:03:21;9.52;60.13
67279;DHT22;54193;53.746;10.058;2024-02-23T13:05:46;9.63;61.07
67279;DHT22;54193;53.746;10.058;2024-02-23T13:08:12;9.42;60.53
67279;DHT22;54193;53.746;10.058;2024-02-23T13:10:37;9.40;61.52
67279;DHT22;54193;53.746;10.058;2024-02-23T13:13:02;9.35;61.26
67279;DHT22;54193;53.746;10.058;2024-02-23T13:15:27;9.47;61.44
67279;DHT22;54193;53.746;10.058;2024-02-23T13:17:53;9.55;61.45
67279;DHT22;54193;53.746;10.058;2024-02-23T13:20:18;9.63;61.10
67279;DHT22;54193;53.746;10.058;2024-02-23T13:22:43;9.38;61.49
67279;DHT22;54193;53.746;10.058;2024-02-23T13:25:08;9.26;61.82
67279;DHT22;54193;53.746;10.058;2024-02-23T13:27:34;9.24;62.28
67279;DHT22;54193;53.746;10.058;2024-02-23T13:29:59;9.34;61.14
67279;DHT22;54193;53.746;10.058;2024-02-23T13:32:24;9.38;61.64
67279;DHT22;54193;53.746;10.058;2024-02-23T13:34:49;9.42;62.92
67279;DHT22;54193;53.746;10.058;2024-02-23T13:37:17;9.44;62.73
67279;DHT22;54193;53.746;10.058;2024-02-23T13:39:43;9.33;62.06
67279;DHT22;54193;53.746;10.058;2024-02-23T13:42:08;8.99;61.38
67279;DHT22;54193;53.746;10.058;2024-02-23T13:44:35;9.19;61.16
67279;DHT22;54193;53.746;10.058;2024-02-23T13:47:00;9.35;61.73
67279;DHT22;54193;53.746;10.058;2024-02-23T13:49:25;9.06;61.35
67279;DHT22;54193;53.746;10.058;2024-02-23T13:51:51;9.27;61.70
67279;DHT22;54193;53.746;10.058;2024-02-23T13:54:16;9.38;61.86
67279;DHT22;54193;53.746;10.058;2024-02-23T13:56:41;9.27;61.69
67279;DHT22;54193;53.746;10.058;2024-02-23T13:59:06;9.20;61.77
67279;DHT22;54193;53.746;10.058;2024-02-23T14:01:32;9.27;62.09
67279;DHT22;54193;53.746;10.058;2024-02-23T14:03:57;9.30;61.88
67279;DHT22;54193;53.746;10.058;2024-02-23T14:06:22;9.28;61.86
67279;DHT22;54193;53.746;10.058;2024-02-23T14:08:47;9.22;61.65
67279;DHT22;54193;53.746;10.058;2024-02-23T14:11:13;9.24;61.87
67279;DHT22;54193;53.746;10.058;2024-02-23T14:13:38;9.35;61.86
67279;DHT22;54193;53.746;10.058;2024-02-23T14:16:03;9.13;61.36
67279;DHT22;54193;53.746;10.058;2024-02-23T14:18:30;9.28;61.32
67279;DHT22;54193;53.746;10.058;2024-02-23T14:20:57;9.34;61.14
67279;DHT22;54193;53.746;10.058;2024-02-23T14:23:22;9.47;61.27
67279;DHT22;54193;53.746;10.058;2024-02-23T14:25:47;9.51;61.96
67279;DHT22;54193;53.746;10.058;2024-02-23T14:28:13;9.48;61.15
67279;DHT22;54193;53.746;10.058;2024-02-23T14:30:38;9.52;60.73
67279;DHT22;54193;53.746;10.058;2024-02-23T14:33:05;9.59;60.23
67279;DHT22;54193;53.746;10.058;2024-02-23T14:35:30;9.55;59.95
67279;DHT22;54193;53.746;10.058;2024-02-23T14:37:55;9.58;60.62
67279;DHT22;54193;53.746;10.058;2024-02-23T14:40:21;9.38;60.78
67279;DHT22;54193;53.746;10.058;2024-02-23T14:42:46;9.40;61.54
67279;DHT22;54193;53.746;10.058;2024-02-23T14:45:11;9.47;60.64
67279;DHT22;54193;53.746;10.058;2024-02-23T14:47:38;9.38;61.07
67279;DHT22;54193;53.746;10.058;2024-02-23T14:50:04;9.35;61.26
67279;DHT22;54193;53.746;10.058;2024-02-23T14:52:29;9.38;61.65
67279;DHT22;54193;53.746;10.058;2024-02-23T14:54:54;9.30;61.82
67279;DHT22;54193;53.746;10.058;2024-02-23T14:57:20;9.14;61.51
67279;DHT22;54193;53.746;10.058;2024-02-23T14:59:46;9.38;61.22
67279;DHT22;54193;53.746;10.058;2024-02-23T15:02:18;9.34;61.65
67279;DHT22;54193;53.746;10.058;2024-02-23T15:04:44;9.35;60.81
67279;DHT22;54193;53.746;10.058;2024-02-23T15:07:09;9.42;60.85
67279;DHT22;54193;53.746;10.058;2024-02-23T15:09:34;9.38;61.31
67279;DHT22;54193;53.746;10.058;2024-02-23T15:11:59;9.38;61.45
67279;DHT22;54193;53.746;10.058;2024-02-23T15:14:25;9.41;61.31
67279;DHT22;54193;53.746;10.058;2024-02-23T15:16:50;9.37;61.26
67279;DHT22;54193;53.746;10.058;2024-02-23T15:19:15;9.45;61.42